createdAt,value
2022-10-22T00:07:21.727Z,5.95
2022-10-22T00:22:23.746Z,5.85
2022-10-22T00:37:25.668Z,5.70
2022-10-22T00:52:27.624Z,6.03
2022-10-22T04:32:02.919Z,5.07
2022-10-22T04:47:04.988Z,5.22
2022-10-22T05:02:06.984Z,4.85
2022-10-22T05:17:08.896Z,4.63
2022-10-22T05:32:10.808Z,4.82
2022-10-22T05:47:12.721Z,4.93
2022-10-22T06:02:14.690Z,5.32
2022-10-22T06:17:16.702Z,4.78
2022-10-22T06:32:18.640Z,4.70
2022-10-22T06:47:20.584Z,4.05
2022-10-22T07:02:22.523Z,4.05
2022-10-22T07:17:24.485Z,3.90
2022-10-22T07:32:26.526Z,3.85
2022-10-22T07:47:28.438Z,4.10
2022-10-22T08:02:30.390Z,3.80
2022-10-22T08:17:32.303Z,3.53
2022-10-22T08:32:34.249Z,3.28
2022-10-22T08:47:59.320Z,3.40
2022-10-22T09:03:28.784Z,3.50
2022-10-22T09:18:38.715Z,3.60
2022-10-22T09:33:41.691Z,3.50
2022-10-22T09:48:45.111Z,3.40
2022-10-22T10:03:48.209Z,3.20
2022-10-22T10:19:12.201Z,3.30
2022-10-22T10:34:30.197Z,3.10
2022-10-22T10:49:34.024Z,2.90
2022-10-22T11:04:44.811Z,3.10
2022-10-22T11:19:59.930Z,2.78
2022-10-22T11:35:04.229Z,3.10
2022-10-22T11:50:20.291Z,2.90
2022-10-22T12:05:25.199Z,2.65
2022-10-22T12:20:27.264Z,2.75
2022-10-22T12:35:30.988Z,2.70
2022-10-22T12:50:40.093Z,2.60
2022-10-22T13:05:42.291Z,2.80
2022-10-22T13:20:58.923Z,2.80
2022-10-22T13:36:00.862Z,2.45
2022-10-22T13:51:02.771Z,2.65
2022-10-22T14:06:04.880Z,2.40
2022-10-22T14:21:07.662Z,2.50
2022-10-22T14:36:13.219Z,2.35
2022-10-22T14:51:19.108Z,2.42
2022-10-22T15:06:20.998Z,2.58
2022-10-22T15:21:23.109Z,2.72
2022-10-22T15:36:25.022Z,2.70
2022-10-22T15:51:27.139Z,2.55
2022-10-22T16:06:41.927Z,2.50
2022-10-22T16:21:44.810Z,2.60
2022-10-22T16:36:47.202Z,2.40
2022-10-22T16:51:49.140Z,2.65
2022-10-22T17:06:51.076Z,2.67
2022-10-22T17:21:53.823Z,2.80
2022-10-22T17:37:00.074Z,2.58
2022-10-22T17:52:02.181Z,3.25
2022-10-22T18:07:05.339Z,3.10
2022-10-22T18:22:07.981Z,3.17
2022-10-22T18:37:09.883Z,3.20
2022-10-22T18:52:11.832Z,3.03
2022-10-22T19:07:13.820Z,3.45
2022-10-22T19:22:15.885Z,3.10
2022-10-22T19:37:17.811Z,3.38
2022-10-22T19:52:19.844Z,3.00
2022-10-22T20:07:22.584Z,3.13
2022-10-22T20:22:24.490Z,3.00
2022-10-22T20:37:26.396Z,2.80
2022-10-22T20:52:28.374Z,2.95
2022-10-22T21:07:30.333Z,3.03
2022-10-22T21:22:32.250Z,3.10
2022-10-22T21:37:35.243Z,3.00
2022-10-22T21:52:37.247Z,3.00
2022-10-22T22:07:39.451Z,2.58
2022-10-22T22:22:41.720Z,2.70
2022-10-22T22:37:44.000Z,2.78
2022-10-22T22:52:46.104Z,2.72
2022-10-22T23:07:48.043Z,2.78
2022-10-22T23:22:49.959Z,2.50
2022-10-22T23:37:51.928Z,2.63
2022-10-22T23:52:53.845Z,2.60
